createdAt,value
2023-05-10T06:56:05.428Z,500.00
2023-05-10T06:57:08.909Z,500.00
2023-05-10T06:58:12.933Z,500.00
2023-05-10T06:59:05.449Z,500.00
2023-05-10T07:00:05.452Z,500.00
2023-05-10T07:01:05.469Z,500.00
2023-05-10T07:02:05.410Z,500.00
2023-05-10T07:03:06.053Z,500.00
2023-05-10T07:04:05.495Z,500.00
2023-05-10T07:05:05.507Z,500.00
2023-05-10T07:06:05.546Z,500.00
2023-05-10T07:07:05.569Z,500.00
2023-05-10T07:08:05.602Z,500.00
2023-05-10T07:09:05.642Z,480.00
2023-05-10T07:10:05.695Z,458.00
2023-05-10T07:11:05.692Z,451.00
2023-05-10T07:12:06.827Z,453.00
2023-05-10T07:13:05.842Z,462.00
2023-05-10T07:14:05.793Z,469.00
2023-05-10T07:15:05.850Z,491.00
2023-05-10T07:16:05.935Z,500.00
2023-05-10T07:17:05.946Z,500.00
2023-05-10T07:18:06.160Z,500.00
2023-05-10T07:19:06.003Z,501.00
2023-05-10T07:20:06.036Z,500.00
2023-05-10T07:21:06.154Z,500.00
2023-05-10T07:22:06.278Z,500.00
2023-05-10T07:23:06.148Z,500.00
2023-05-10T07:24:06.179Z,496.00
2023-05-10T07:25:06.230Z,504.00
2023-05-10T07:26:06.270Z,500.00
2023-05-10T07:27:06.527Z,504.00
2023-05-10T07:28:06.331Z,485.00
2023-05-10T07:29:06.421Z,590.00
2023-05-10T07:30:06.409Z,652.00
2023-05-10T07:31:06.474Z,654.00
2023-05-10T07:32:06.552Z,632.00
2023-05-10T07:33:06.748Z,614.00
2023-05-10T07:34:06.558Z,591.00
2023-05-10T07:35:06.580Z,586.00
2023-05-10T07:36:06.595Z,598.00
2023-05-10T07:37:06.625Z,602.00
2023-05-10T07:38:06.622Z,604.00
2023-05-10T07:39:06.637Z,606.00
2023-05-10T07:40:06.648Z,607.00
2023-05-10T07:41:06.656Z,600.00
2023-05-10T07:42:06.682Z,583.00
2023-05-10T07:43:06.643Z,586.00
2023-05-10T07:44:06.654Z,596.00
2023-05-10T07:45:06.666Z,604.00
2023-05-10T07:46:06.707Z,599.00
2023-05-10T07:47:06.716Z,606.00
2023-05-10T07:48:06.706Z,612.00
2023-05-10T07:49:06.663Z,610.00
2023-05-10T07:50:07.913Z,615.00
2023-05-10T07:51:06.649Z,616.00
2023-05-10T07:52:06.686Z,618.00
2023-05-10T07:53:06.752Z,624.00
2023-05-10T07:54:06.795Z,622.00
2023-05-10T07:55:07.026Z,619.00
2023-05-10T07:56:06.857Z,618.00
2023-05-10T07:57:06.881Z,614.00
2023-05-10T07:58:06.952Z,617.00
2023-05-10T07:59:07.033Z,613.00
2023-05-10T08:00:07.613Z,621.00
2023-05-10T08:01:07.189Z,620.00
2023-05-10T08:02:07.237Z,597.00
2023-05-10T08:03:07.307Z,597.00
2023-05-10T08:04:07.453Z,602.00
2023-05-10T08:05:07.384Z,606.00
2023-05-10T08:06:07.454Z,612.00
2023-05-10T08:07:07.508Z,614.00
2023-05-10T08:08:07.574Z,616.00
2023-05-10T08:09:07.644Z,614.00
2023-05-10T08:10:07.693Z,614.00
2023-05-10T08:11:07.728Z,595.00
2023-05-10T08:12:07.780Z,592.00
2023-05-10T08:13:07.829Z,598.00
2023-05-10T08:14:07.896Z,592.00
2023-05-10T08:15:08.010Z,595.00
2023-05-10T08:16:08.045Z,600.00
2023-05-10T08:17:08.048Z,604.00
2023-05-10T08:18:08.118Z,600.00
2023-05-10T08:19:08.185Z,603.00
2023-05-10T08:20:08.552Z,615.00
2023-05-10T08:21:08.222Z,540.00
2023-05-10T08:22:08.291Z,435.00
2023-05-10T08:23:08.337Z,413.00
2023-05-10T08:24:08.387Z,501.00
2023-05-10T08:25:08.311Z,509.00
2023-05-10T08:26:08.344Z,533.00
2023-05-10T08:27:08.330Z,547.00
2023-05-10T08:28:09.919Z,554.00
2023-05-10T08:29:08.359Z,613.00
2023-05-10T08:30:08.368Z,632.00
2023-05-10T08:31:09.035Z,650.00
2023-05-10T08:32:08.360Z,654.00
2023-05-10T08:33:08.453Z,651.00
2023-05-10T08:34:09.045Z,675.00
2023-05-10T08:35:09.065Z,678.00
2023-05-10T08:36:08.597Z,692.00
2023-05-10T08:37:08.662Z,715.00
2023-05-10T08:38:08.727Z,779.00
2023-05-10T08:39:16.207Z,868.00
2023-05-10T08:40:10.018Z,684.00
2023-05-10T08:41:08.864Z,717.00
2023-05-10T08:42:08.754Z,782.00
2023-05-10T08:43:08.760Z,873.00
2023-05-10T08:44:08.749Z,971.00
2023-05-10T08:45:09.073Z,1015.00
2023-05-10T08:46:08.827Z,1034.00
2023-05-10T08:47:08.844Z,1059.00
2023-05-10T08:48:08.786Z,1094.00
2023-05-10T08:49:08.838Z,1065.00
2023-05-10T08:50:08.846Z,1065.00
2023-05-10T08:51:09.010Z,1060.00
2023-05-10T08:52:08.954Z,1067.00
2023-05-10T08:53:09.020Z,1080.00
2023-05-10T08:54:09.037Z,1075.00
2023-05-10T08:55:09.239Z,1039.00
2023-05-10T08:56:09.141Z,1056.00
2023-05-10T08:57:09.173Z,1052.00
2023-05-10T08:58:09.210Z,1057.00
2023-05-10T08:59:09.306Z,1043.00
2023-05-10T09:00:09.317Z,1033.00
2023-05-10T09:02:09.429Z,1020.00
2023-05-10T09:03:09.516Z,1016.00
2023-05-10T09:04:09.643Z,1014.00
2023-05-10T09:05:09.658Z,967.00
2023-05-10T09:06:09.708Z,910.00
2023-05-10T09:07:09.774Z,948.00
2023-05-10T09:08:09.791Z,949.00
2023-05-10T09:09:09.729Z,949.00
2023-05-10T09:10:10.043Z,849.00
2023-05-10T09:11:09.743Z,850.00
2023-05-10T09:12:09.740Z,837.00
2023-05-10T09:13:09.814Z,830.00
2023-05-10T09:14:09.736Z,790.00
2023-05-10T09:15:10.058Z,759.00
2023-05-10T09:16:20.421Z,646.00
2023-05-10T09:17:10.721Z,647.00
2023-05-10T09:18:09.862Z,651.00
2023-05-10T09:19:09.838Z,655.00
2023-05-10T09:20:09.732Z,667.00
2023-05-10T09:21:09.657Z,701.00
2023-05-10T09:22:09.753Z,726.00
2023-05-10T09:23:09.671Z,740.00
2023-05-10T09:24:09.647Z,757.00
2023-05-10T09:25:10.062Z,739.00
2023-05-10T09:26:10.045Z,660.00
2023-05-10T09:27:09.749Z,639.00
2023-05-10T09:28:09.828Z,626.00
2023-05-10T09:29:09.879Z,612.00
2023-05-10T09:30:10.047Z,615.00
2023-05-10T09:31:10.152Z,633.00
2023-05-10T09:32:10.039Z,662.00
2023-05-10T09:33:10.079Z,690.00
2023-05-10T09:34:10.150Z,742.00
2023-05-10T09:35:10.193Z,749.00
2023-05-10T09:36:10.590Z,746.00
2023-05-10T09:37:10.278Z,755.00
2023-05-10T09:38:10.346Z,774.00
2023-05-10T09:39:10.373Z,785.00
2023-05-10T09:40:10.429Z,765.00
2023-05-10T09:41:10.466Z,755.00
2023-05-10T09:42:10.553Z,730.00
2023-05-10T09:43:10.564Z,718.00
2023-05-10T09:44:10.604Z,715.00
2023-05-10T09:45:10.664Z,706.00
2023-05-10T09:46:11.101Z,695.00
2023-05-10T09:47:10.751Z,676.00
2023-05-10T09:48:10.889Z,648.00
2023-05-10T09:49:10.884Z,647.00
2023-05-10T09:50:10.941Z,604.00
2023-05-10T09:51:10.993Z,612.00
2023-05-10T09:52:11.004Z,606.00
2023-05-10T09:53:11.061Z,601.00
2023-05-10T09:54:11.127Z,603.00
2023-05-10T09:55:11.179Z,606.00
2023-05-10T09:56:11.220Z,612.00
2023-05-10T09:57:11.272Z,606.00
2023-05-10T09:58:11.622Z,600.00
2023-05-10T09:59:11.370Z,591.00
2023-05-10T10:00:11.451Z,587.00
2023-05-10T10:01:11.534Z,593.00
2023-05-10T10:02:11.538Z,590.00
2023-05-10T10:03:11.656Z,592.00
2023-05-10T10:04:11.653Z,590.00
2023-05-10T10:05:11.997Z,589.00
2023-05-10T10:06:22.591Z,587.00
2023-05-10T10:07:12.801Z,587.00
2023-05-10T10:08:11.785Z,581.00
2023-05-10T10:09:11.765Z,580.00
2023-05-10T10:10:11.780Z,584.00
2023-05-10T10:11:11.751Z,573.00
2023-05-10T10:12:11.752Z,574.00
2023-05-10T10:13:11.731Z,579.00
2023-05-10T10:14:11.753Z,569.00
2023-05-10T10:15:11.747Z,567.00
2023-05-10T10:16:12.098Z,569.00
2023-05-10T10:17:11.861Z,576.00
2023-05-10T10:18:11.936Z,574.00
2023-05-10T10:19:12.002Z,573.00
2023-05-10T10:20:12.312Z,484.00
2023-05-10T10:21:12.571Z,400.00
2023-05-10T10:22:12.105Z,400.00
2023-05-10T10:23:12.147Z,400.00
2023-05-10T10:24:12.207Z,400.00
2023-05-10T10:25:12.205Z,400.00
2023-05-10T10:26:12.587Z,400.00
2023-05-10T10:27:12.206Z,400.00
2023-05-10T10:28:12.244Z,505.00
2023-05-10T10:29:12.247Z,560.00
2023-05-10T10:30:12.226Z,604.00
2023-05-10T10:31:12.291Z,629.00
2023-05-10T10:32:12.290Z,673.00
2023-05-10T10:33:20.643Z,802.00
2023-05-10T10:34:13.345Z,806.00
2023-05-10T10:35:12.359Z,821.00
2023-05-10T10:36:12.578Z,821.00
2023-05-10T10:37:12.323Z,833.00
2023-05-10T10:38:12.322Z,971.00
2023-05-10T10:39:12.327Z,1063.00
2023-05-10T10:40:12.310Z,1088.00
2023-05-10T10:41:12.335Z,1170.00
2023-05-10T10:42:12.459Z,1178.00
2023-05-10T10:43:12.290Z,1205.00
2023-05-10T10:44:12.285Z,1080.00
2023-05-10T10:45:12.326Z,1203.00
2023-05-10T10:46:12.307Z,1203.00
2023-05-10T10:47:12.327Z,1225.00
2023-05-10T10:48:12.277Z,1111.00
2023-05-10T10:49:12.232Z,1050.00
2023-05-10T10:50:12.270Z,1061.00
2023-05-10T10:51:12.887Z,1150.00
2023-05-10T10:52:12.218Z,1195.00
2023-05-10T10:53:12.279Z,1111.00
2023-05-10T10:54:12.230Z,1188.00
2023-05-10T10:55:12.220Z,1122.00
2023-05-10T10:56:12.255Z,956.00
2023-05-10T10:57:12.181Z,976.00
2023-05-10T10:58:12.186Z,929.00
2023-05-10T10:59:12.160Z,863.00
2023-05-10T11:00:12.164Z,981.00
2023-05-10T11:01:12.229Z,880.00
2023-05-10T11:02:12.191Z,977.00
2023-05-10T11:03:12.255Z,959.00
2023-05-10T11:04:12.264Z,953.00
2023-05-10T11:05:12.230Z,990.00
2023-05-10T11:06:12.220Z,1011.00
2023-05-10T11:07:12.363Z,1049.00
2023-05-10T11:08:12.249Z,1142.00
2023-05-10T11:09:12.258Z,1201.00
2023-05-10T11:10:12.275Z,1128.00
2023-05-10T11:11:12.329Z,1178.00
2023-05-10T11:12:12.305Z,1140.00
2023-05-10T11:13:12.296Z,1141.00
2023-05-10T11:14:12.331Z,821.00
2023-05-10T11:15:12.351Z,611.00
2023-05-10T11:16:12.679Z,576.00
2023-05-10T11:17:12.510Z,568.00
2023-05-10T11:18:12.558Z,548.00
2023-05-10T11:19:12.651Z,561.00
2023-05-10T11:20:12.648Z,591.00
2023-05-10T11:21:12.719Z,559.00
2023-05-10T11:22:12.762Z,545.00
2023-05-10T11:23:12.829Z,556.00
2023-05-10T11:24:12.881Z,557.00
2023-05-10T11:25:12.944Z,526.00
2023-05-10T11:26:13.017Z,499.00
2023-05-10T11:27:13.049Z,505.00
2023-05-10T11:28:13.134Z,498.00
2023-05-10T11:29:13.172Z,497.00
2023-05-10T11:30:13.248Z,500.00
2023-05-10T11:31:13.301Z,506.00
2023-05-10T11:32:13.339Z,514.00
2023-05-10T11:33:13.395Z,502.00
2023-05-10T11:34:13.432Z,499.00
2023-05-10T11:35:13.494Z,500.00
2023-05-10T11:36:13.543Z,487.00
2023-05-10T11:37:13.605Z,518.00
2023-05-10T11:38:13.650Z,512.00
2023-05-10T11:39:13.735Z,523.00
2023-05-10T11:40:13.839Z,515.00
2023-05-10T11:41:13.849Z,509.00
2023-05-10T11:42:13.901Z,508.00
2023-05-10T11:43:13.964Z,507.00
2023-05-10T11:44:14.017Z,504.00
2023-05-10T11:45:14.069Z,508.00
2023-05-10T11:46:14.133Z,501.00
2023-05-10T11:47:14.195Z,514.00
2023-05-10T11:48:14.286Z,520.00
2023-05-10T11:49:14.295Z,517.00
2023-05-10T11:50:14.400Z,514.00
2023-05-10T11:51:14.408Z,519.00
2023-05-10T11:52:14.425Z,527.00
2023-05-10T11:53:14.444Z,531.00
2023-05-10T11:54:14.466Z,523.00
2023-05-10T11:55:14.503Z,534.00
2023-05-10T11:56:14.547Z,535.00
2023-05-10T11:57:14.562Z,500.00
2023-05-10T11:58:14.603Z,514.00
2023-05-10T11:59:14.642Z,516.00
2023-05-10T12:00:14.995Z,517.00
2023-05-10T12:01:14.693Z,531.00
2023-05-10T12:02:14.814Z,547.00
2023-05-10T12:03:14.839Z,557.00
2023-05-10T12:04:14.955Z,544.00
2023-05-10T12:05:14.784Z,545.00
2023-05-10T12:06:15.115Z,622.00
2023-05-10T12:07:14.808Z,765.00
2023-05-10T12:08:14.811Z,892.00
2023-05-10T12:09:14.807Z,906.00
2023-05-10T12:10:14.903Z,1061.00
2023-05-10T12:11:15.132Z,1048.00
2023-05-10T12:12:14.923Z,1028.00
2023-05-10T12:13:15.010Z,973.00
2023-05-10T12:14:15.057Z,1000.00
2023-05-10T12:15:15.116Z,1065.00
2023-05-10T12:16:15.648Z,1122.00
2023-05-10T12:17:15.220Z,1120.00
2023-05-10T12:18:15.353Z,1168.00
2023-05-10T12:19:15.334Z,1223.00
2023-05-10T12:20:15.763Z,1326.00
2023-05-10T12:21:15.470Z,1473.00
2023-05-10T12:22:15.481Z,1660.00
2023-05-10T12:23:15.575Z,1587.00
2023-05-10T12:24:15.597Z,1571.00
2023-05-10T12:25:15.644Z,1586.00
2023-05-10T12:26:15.694Z,1583.00
2023-05-10T12:27:15.701Z,1570.00
2023-05-10T12:28:15.754Z,1642.00
2023-05-10T12:29:15.809Z,1674.00
2023-05-10T12:30:15.929Z,1717.00
2023-05-10T12:31:15.910Z,1743.00
2023-05-10T12:32:16.076Z,1756.00
2023-05-10T12:33:16.232Z,1752.00
2023-05-10T12:34:16.009Z,1757.00
2023-05-10T12:35:16.074Z,1756.00
2023-05-10T12:36:16.111Z,1748.00
2023-05-10T12:37:16.122Z,1760.00
2023-05-10T12:38:16.158Z,1758.00
2023-05-10T12:39:16.194Z,1750.00
2023-05-10T12:40:16.497Z,1753.00
2023-05-10T12:41:16.299Z,1765.00
2023-05-10T12:42:16.272Z,1791.00
2023-05-10T12:43:16.323Z,1802.00
2023-05-10T12:44:16.368Z,1824.00
2023-05-10T12:45:16.411Z,1838.00
2023-05-10T12:46:16.513Z,1843.00
2023-05-10T12:47:16.451Z,1861.00
2023-05-10T12:48:16.484Z,1868.00
2023-05-10T12:49:16.519Z,1881.00
2023-05-10T12:50:16.824Z,1895.00
2023-05-10T12:51:16.762Z,1895.00
2023-05-10T12:52:16.640Z,1893.00
2023-05-10T12:53:16.660Z,1895.00
2023-05-10T12:54:16.697Z,1907.00
2023-05-10T12:55:16.721Z,1913.00
2023-05-10T12:56:16.776Z,1924.00
2023-05-10T12:57:16.797Z,1883.00
2023-05-10T12:58:31.423Z,1897.00
2023-05-10T12:59:17.816Z,1898.00
2023-05-10T13:00:16.988Z,1860.00
2023-05-10T13:01:16.881Z,1877.00
2023-05-10T13:02:16.814Z,1901.00
2023-05-10T13:03:16.788Z,1921.00
2023-05-10T13:04:16.825Z,1936.00
2023-05-10T13:05:16.757Z,1918.00
2023-05-10T13:06:16.798Z,1921.00
2023-05-10T13:07:16.740Z,1913.00
2023-05-10T13:08:16.757Z,1922.00
2023-05-10T13:09:16.725Z,1915.00
2023-05-10T13:10:17.028Z,1910.00
2023-05-10T13:11:16.757Z,1854.00
2023-05-10T13:12:16.711Z,1830.00
2023-05-10T13:13:16.769Z,1798.00
2023-05-10T13:14:16.812Z,1797.00
2023-05-10T13:15:16.819Z,1765.00
2023-05-10T13:16:17.529Z,1742.00
2023-05-10T13:17:17.182Z,1731.00
2023-05-10T13:18:16.947Z,1664.00
2023-05-10T13:19:17.103Z,1619.00
2023-05-10T13:20:17.311Z,1608.00
2023-05-10T13:21:17.037Z,1577.00
2023-05-10T13:22:22.922Z,1628.00
2023-05-10T13:23:18.053Z,1630.00
2023-05-10T13:24:17.044Z,1632.00
2023-05-10T13:25:17.034Z,1610.00
2023-05-10T13:26:17.036Z,1574.00
2023-05-10T13:27:17.027Z,1555.00
2023-05-10T13:28:17.011Z,1568.00
2023-05-10T13:29:16.987Z,1600.00
2023-05-10T13:30:17.206Z,1661.00
2023-05-10T13:31:17.115Z,1635.00
2023-05-10T13:32:16.987Z,1605.00
2023-05-10T13:33:17.009Z,1638.00
2023-05-10T13:34:16.990Z,1602.00
2023-05-10T13:35:16.965Z,1614.00
2023-05-10T13:36:16.953Z,1559.00
2023-05-10T13:37:16.968Z,1634.00
2023-05-10T13:38:17.001Z,1577.00
2023-05-10T13:39:17.046Z,1594.00
2023-05-10T13:40:17.360Z,1635.00
2023-05-10T13:41:17.113Z,1746.00
2023-05-10T13:42:17.157Z,1762.00
2023-05-10T13:43:17.179Z,1695.00
2023-05-10T13:44:17.252Z,1667.00
2023-05-10T13:45:17.423Z,1645.00
2023-05-10T13:46:17.318Z,1694.00
2023-05-10T13:47:17.304Z,1645.00
2023-05-10T13:48:17.359Z,1688.00
2023-05-10T13:49:17.678Z,1650.00
2023-05-10T13:50:17.682Z,1670.00
2023-05-10T13:51:17.467Z,1662.00
2023-05-10T13:52:17.496Z,1668.00
2023-05-10T13:53:17.521Z,1638.00
2023-05-10T13:54:17.566Z,1646.00
2023-05-10T13:55:17.875Z,1663.00
2023-05-10T13:56:17.661Z,1643.00
2023-05-10T13:57:17.732Z,1647.00
2023-05-10T13:58:17.754Z,1649.00
2023-05-10T13:59:17.834Z,1635.00
2023-05-10T14:00:18.188Z,1646.00
2023-05-10T14:01:17.878Z,1679.00
2023-05-10T14:02:18.227Z,1662.00
2023-05-10T14:03:18.100Z,1650.00
2023-05-10T14:04:17.959Z,1637.00
2023-05-10T14:05:18.901Z,1651.00
2023-05-10T14:06:18.009Z,1658.00
2023-05-10T14:07:18.181Z,1650.00
2023-05-10T14:08:17.994Z,1642.00
2023-05-10T14:09:17.961Z,1622.00
2023-05-10T14:10:17.974Z,1631.00
2023-05-10T14:11:17.960Z,1620.00
2023-05-10T14:12:18.047Z,1622.00
2023-05-10T14:13:17.954Z,1608.00
2023-05-10T14:14:17.951Z,1597.00
2023-05-10T14:15:18.203Z,1593.00
2023-05-10T14:16:17.940Z,1539.00
2023-05-10T14:17:17.912Z,1574.00
2023-05-10T14:18:17.953Z,1532.00
2023-05-10T14:19:17.904Z,1547.00
2023-05-10T14:20:17.903Z,1559.00
2023-05-10T14:21:17.898Z,1534.00
2023-05-10T14:22:17.890Z,1546.00
2023-05-10T14:23:17.876Z,1489.00
2023-05-10T14:24:17.884Z,1453.00
2023-05-10T14:25:18.094Z,1472.00
2023-05-10T14:26:17.845Z,1488.00
2023-05-10T14:27:17.855Z,1459.00
2023-05-10T14:28:17.924Z,1458.00
2023-05-10T14:29:17.834Z,1361.00
2023-05-10T14:30:17.843Z,1349.00
2023-05-10T14:31:17.978Z,1411.00
2023-05-10T14:32:17.939Z,1331.00
2023-05-10T14:33:17.813Z,1339.00
2023-05-10T14:34:17.797Z,1330.00
2023-05-10T14:35:19.710Z,1307.00
2023-05-10T14:36:17.813Z,1193.00
2023-05-10T14:37:17.783Z,1183.00
2023-05-10T14:38:17.785Z,1157.00
2023-05-10T14:39:17.829Z,1174.00
2023-05-10T14:40:17.882Z,1149.00
2023-05-10T14:41:17.908Z,1125.00
2023-05-10T14:42:17.949Z,1090.00
2023-05-10T14:43:17.991Z,1110.00
2023-05-10T14:44:18.041Z,1080.00
2023-05-10T14:45:18.266Z,1061.00
2023-05-10T14:46:18.196Z,1040.00
2023-05-10T14:47:18.163Z,1022.00
2023-05-10T14:48:18.195Z,1032.00
2023-05-10T14:49:18.254Z,1013.00
2023-05-10T14:50:32.340Z,1006.00
2023-05-10T14:51:19.272Z,1006.00
2023-05-10T14:52:18.289Z,1005.00
2023-05-10T14:53:18.260Z,987.00
2023-05-10T14:54:18.248Z,1006.00
2023-05-10T14:55:18.428Z,975.00
2023-05-10T14:56:18.234Z,985.00
2023-05-10T14:57:18.220Z,980.00
2023-05-10T14:58:18.204Z,967.00
2023-05-10T14:59:18.194Z,982.00
2023-05-10T15:00:18.364Z,976.00
2023-05-10T15:01:18.212Z,994.00
2023-05-10T15:02:18.215Z,996.00
2023-05-10T15:03:18.350Z,995.00
2023-05-10T15:04:18.295Z,1010.00
2023-05-10T15:05:18.586Z,1024.00
2023-05-10T15:06:18.385Z,993.00
2023-05-10T15:07:18.447Z,965.00
2023-05-10T15:08:18.488Z,939.00
2023-05-10T15:09:18.508Z,928.00
2023-05-10T15:10:18.561Z,911.00
2023-05-10T15:11:18.612Z,920.00
2023-05-10T15:12:18.693Z,903.00
2023-05-10T15:13:18.744Z,934.00
2023-05-10T15:14:18.785Z,937.00
2023-05-10T15:15:19.023Z,909.00
2023-05-10T15:16:18.923Z,879.00
2023-05-10T15:17:18.911Z,878.00
2023-05-10T15:18:19.059Z,866.00
2023-05-10T15:19:19.039Z,847.00
2023-05-10T15:20:19.060Z,839.00
2023-05-10T15:21:19.160Z,856.00
2023-05-10T15:22:19.166Z,846.00
2023-05-10T15:23:19.211Z,843.00
2023-05-10T15:24:19.261Z,838.00
2023-05-10T15:25:19.494Z,818.00
2023-05-10T15:26:19.352Z,821.00
2023-05-10T15:27:19.407Z,820.00
2023-05-10T15:28:19.443Z,824.00
2023-05-10T15:29:19.513Z,812.00
2023-05-10T15:30:19.553Z,824.00
2023-05-10T15:31:19.625Z,829.00
2023-05-10T15:32:19.650Z,816.00
2023-05-10T15:33:19.709Z,809.00
2023-05-10T15:34:19.799Z,801.00
2023-05-10T15:35:19.810Z,797.00
2023-05-10T15:36:19.856Z,788.00
2023-05-10T15:37:19.924Z,778.00
2023-05-10T15:38:19.943Z,781.00
2023-05-10T15:39:20.000Z,768.00
2023-05-10T15:40:20.055Z,770.00
2023-05-10T15:41:20.115Z,785.00
2023-05-10T15:42:20.149Z,781.00
2023-05-10T15:43:20.219Z,769.00
2023-05-10T15:44:20.257Z,764.00
2023-05-10T15:45:20.340Z,757.00
2023-05-10T15:46:20.364Z,736.00
2023-05-10T15:47:20.419Z,759.00
2023-05-10T15:48:20.504Z,754.00
2023-05-10T15:49:20.488Z,741.00
2023-05-10T15:50:20.560Z,749.00
2023-05-10T15:51:20.606Z,753.00
2023-05-10T15:52:20.665Z,758.00
2023-05-10T15:53:20.703Z,741.00
2023-05-10T15:54:20.769Z,736.00
2023-05-10T15:55:20.788Z,737.00
2023-05-10T15:56:20.851Z,717.00
2023-05-10T15:57:20.889Z,717.00
2023-05-10T15:58:20.953Z,699.00
2023-05-10T15:59:21.027Z,721.00
2023-05-10T16:00:21.041Z,740.00
2023-05-10T16:01:21.123Z,750.00
2023-05-10T16:02:21.205Z,766.00
2023-05-10T16:03:21.243Z,764.00
2023-05-10T16:04:21.273Z,777.00
2023-05-10T16:05:21.303Z,774.00
2023-05-10T16:06:21.366Z,760.00
2023-05-10T16:07:21.482Z,745.00
2023-05-10T16:08:21.464Z,713.00
2023-05-10T16:09:21.499Z,705.00
2023-05-10T16:10:21.544Z,728.00
2023-05-10T16:11:21.600Z,742.00
2023-05-10T16:12:21.679Z,764.00
2023-05-10T16:13:21.683Z,769.00
2023-05-10T16:14:21.739Z,773.00
2023-05-10T16:15:21.819Z,749.00
2023-05-10T16:16:21.874Z,754.00
2023-05-10T16:17:21.890Z,760.00
2023-05-10T16:18:22.000Z,772.00
2023-05-10T16:19:22.062Z,770.00
2023-05-10T16:20:22.087Z,760.00
2023-05-10T16:21:22.090Z,784.00
2023-05-10T16:22:22.153Z,776.00
2023-05-10T16:23:22.193Z,790.00
2023-05-10T16:24:22.263Z,785.00
2023-05-10T16:25:22.305Z,773.00
2023-05-10T16:26:22.374Z,776.00
2023-05-10T16:27:22.441Z,770.00
2023-05-10T16:28:22.554Z,767.00
2023-05-10T16:29:22.543Z,763.00
2023-05-10T16:30:23.996Z,745.00
2023-05-10T16:31:22.676Z,755.00
2023-05-10T16:32:22.717Z,772.00
2023-05-10T16:33:22.808Z,748.00
2023-05-10T16:34:22.913Z,774.00
2023-05-10T16:35:22.938Z,777.00
2023-05-10T16:36:22.916Z,765.00
2023-05-10T16:37:22.978Z,765.00
2023-05-10T16:38:23.024Z,753.00
2023-05-10T16:39:23.073Z,775.00
2023-05-10T16:40:23.142Z,817.00
2023-05-10T16:41:23.188Z,817.00
2023-05-10T16:42:23.259Z,808.00
2023-05-10T16:43:24.704Z,806.00
2023-05-10T16:44:25.728Z,777.00
2023-05-10T16:45:23.292Z,778.00
2023-05-10T16:46:23.313Z,779.00
2023-05-10T16:47:23.313Z,782.00
2023-05-10T16:48:23.280Z,777.00
2023-05-10T16:49:25.301Z,765.00
2023-05-10T16:50:23.283Z,777.00
2023-05-10T16:51:23.237Z,769.00
2023-05-10T16:52:23.245Z,775.00
2023-05-10T16:53:23.239Z,783.00
2023-05-10T16:54:23.232Z,780.00
2023-05-10T16:55:25.519Z,755.00
2023-05-10T16:56:23.216Z,757.00
2023-05-10T16:57:23.213Z,756.00
2023-05-10T16:58:23.223Z,758.00
2023-05-10T16:59:23.210Z,765.00
2023-05-10T17:00:23.194Z,736.00
2023-05-10T17:01:25.689Z,716.00
2023-05-10T17:02:23.350Z,717.00
2023-05-10T17:03:23.427Z,719.00
2023-05-10T17:04:23.172Z,721.00
2023-05-10T17:05:23.209Z,741.00
2023-05-10T17:06:23.157Z,746.00
2023-05-10T17:07:26.056Z,710.00
2023-05-10T17:08:23.228Z,710.00
2023-05-10T17:09:23.170Z,689.00
2023-05-10T17:10:23.229Z,679.00
2023-05-10T17:11:23.246Z,685.00
2023-05-10T17:12:23.236Z,700.00
2023-05-10T17:13:23.111Z,687.00
2023-05-10T17:14:23.096Z,693.00
2023-05-10T17:15:23.142Z,706.00
2023-05-10T17:16:23.135Z,727.00
2023-05-10T17:17:23.129Z,702.00
2023-05-10T17:18:23.137Z,684.00
2023-05-10T17:19:25.552Z,692.00
2023-05-10T17:20:23.057Z,694.00
2023-05-10T17:21:23.056Z,694.00
2023-05-10T17:22:23.022Z,702.00
2023-05-10T17:23:23.033Z,699.00
2023-05-10T17:24:23.033Z,714.00
2023-05-10T17:25:23.009Z,718.00
2023-05-10T17:26:23.021Z,727.00
2023-05-10T17:27:22.996Z,712.00
2023-05-10T17:28:22.992Z,717.00
2023-05-10T17:29:23.002Z,720.00
2023-05-10T17:30:22.983Z,705.00
2023-05-10T17:31:22.983Z,703.00
2023-05-10T17:32:23.044Z,696.00
2023-05-10T17:33:22.967Z,702.00
2023-05-10T17:34:22.957Z,683.00
2023-05-10T17:35:22.927Z,684.00
2023-05-10T17:36:22.954Z,687.00
2023-05-10T17:37:22.927Z,726.00
2023-05-10T17:38:22.929Z,718.00
2023-05-10T17:39:22.901Z,701.00
2023-05-10T17:40:22.892Z,697.00
2023-05-10T17:41:22.899Z,719.00
2023-05-10T17:42:22.899Z,768.00
2023-05-10T17:43:22.888Z,774.00
2023-05-10T17:44:22.879Z,752.00
2023-05-10T17:45:22.892Z,712.00
2023-05-10T17:46:22.941Z,725.00
2023-05-10T17:47:22.870Z,733.00
2023-05-10T17:48:22.850Z,754.00
2023-05-10T17:49:22.873Z,772.00
2023-05-10T17:50:22.824Z,770.00
2023-05-10T17:51:22.820Z,817.00
2023-05-10T17:52:22.851Z,840.00
2023-05-10T17:53:22.889Z,863.00
2023-05-10T17:54:22.950Z,819.00
2023-05-10T17:55:23.030Z,803.00
2023-05-10T17:56:23.056Z,807.00
2023-05-10T17:57:23.100Z,784.00
2023-05-10T17:58:23.169Z,762.00
2023-05-10T17:59:23.211Z,765.00
2023-05-10T18:00:23.286Z,767.00
2023-05-10T18:01:23.378Z,824.00
2023-05-10T18:02:23.425Z,881.00
2023-05-10T18:03:23.484Z,904.00
2023-05-10T18:04:23.721Z,925.00
2023-05-10T18:05:23.824Z,879.00
2023-05-10T18:06:23.699Z,820.00
2023-05-10T18:07:23.749Z,790.00
2023-05-10T18:08:23.776Z,761.00
2023-05-10T18:09:23.794Z,782.00
2023-05-10T18:10:23.848Z,847.00
2023-05-10T18:11:23.906Z,864.00
2023-05-10T18:12:23.971Z,840.00
2023-05-10T18:13:24.040Z,759.00
2023-05-10T18:14:39.005Z,725.00
2023-05-10T18:15:25.084Z,725.00
2023-05-10T18:16:24.095Z,728.00
2023-05-10T18:17:24.056Z,753.00
2023-05-10T18:18:24.112Z,820.00
2023-05-10T18:19:24.045Z,925.00
2023-05-10T18:20:24.046Z,886.00
2023-05-10T18:21:24.062Z,817.00
2023-05-10T18:22:24.015Z,782.00
2023-05-10T18:23:24.031Z,794.00
2023-05-10T18:24:34.676Z,860.00
2023-05-10T18:25:25.138Z,851.00
2023-05-10T18:26:24.089Z,862.00
2023-05-10T18:27:24.075Z,799.00
2023-05-10T18:28:24.075Z,737.00
2023-05-10T18:29:24.057Z,694.00
2023-05-10T18:30:24.031Z,791.00
2023-05-10T18:31:24.081Z,774.00
2023-05-10T18:32:24.017Z,753.00
2023-05-10T18:33:24.040Z,825.00
2023-05-10T18:34:24.019Z,823.00
2023-05-10T18:35:24.086Z,775.00
2023-05-10T18:36:24.077Z,744.00
2023-05-10T18:37:24.114Z,707.00
2023-05-10T18:38:24.128Z,734.00
2023-05-10T18:39:24.162Z,740.00
2023-05-10T18:40:24.173Z,769.00
2023-05-10T18:41:24.202Z,713.00
2023-05-10T18:42:24.241Z,666.00
2023-05-10T18:43:24.282Z,726.00
2023-05-10T18:44:24.308Z,673.00
2023-05-10T18:45:24.351Z,651.00
2023-05-10T18:46:24.420Z,671.00
2023-05-10T18:47:24.455Z,726.00
2023-05-10T18:48:24.472Z,708.00
2023-05-10T18:49:24.500Z,685.00
2023-05-10T18:50:24.534Z,678.00
2023-05-10T18:51:24.569Z,672.00
2023-05-10T18:52:24.610Z,693.00
2023-05-10T18:53:24.642Z,676.00
2023-05-10T18:54:24.685Z,665.00
2023-05-10T18:55:24.732Z,706.00
2023-05-10T18:56:24.798Z,738.00
2023-05-10T18:57:24.849Z,691.00
2023-05-10T18:58:24.874Z,684.00
2023-05-10T18:59:24.872Z,706.00
2023-05-10T19:00:24.942Z,705.00
2023-05-10T19:01:24.995Z,688.00
2023-05-10T19:02:25.036Z,674.00
2023-05-10T19:03:25.047Z,699.00
2023-05-10T19:04:25.200Z,691.00
2023-05-10T19:05:25.131Z,660.00
2023-05-10T19:06:25.142Z,658.00
2023-05-10T19:07:25.187Z,654.00
2023-05-10T19:08:25.247Z,657.00
2023-05-10T19:09:25.254Z,656.00
2023-05-10T19:10:25.314Z,665.00
2023-05-10T19:11:25.344Z,693.00
2023-05-10T19:12:25.356Z,682.00
2023-05-10T19:13:25.413Z,708.00
2023-05-10T19:14:25.460Z,683.00
2023-05-10T19:15:25.583Z,664.00
2023-05-10T19:16:26.035Z,663.00
2023-05-10T19:17:25.596Z,675.00
2023-05-10T19:18:27.129Z,673.00